sensor_id;sensor_type;location;lat;lon;timestamp;P1;durP1;ratioP1;P2;durP2;ratioP2
65162;SDS011;51751;55.714;37.436;2023-04-24T00:00:19;18.23;;;6.22;;
65162;SDS011;51751;55.714;37.436;2023-04-24T00:02:46;17.30;;;7.35;;
65162;SDS011;51751;55.714;37.436;2023-04-24T00:05:14;18.05;;;6.93;;
65162;SDS011;51751;55.714;37.436;2023-04-24T00:07:40;19.92;;;7.00;;
65162;SDS011;51751;55.714;37.436;2023-04-24T00:10:07;16.85;;;6.63;;
65162;SDS011;51751;55.714;37.436;2023-04-24T00:12:33;15.70;;;5.97;;
65162;SDS011;51751;55.714;37.436;2023-04-24T00:14:59;18.70;;;6.82;;
65162;SDS011;51751;55.714;37.436;2023-04-24T00:17:25;13.70;;;5.88;;
65162;SDS011;51751;55.714;37.436;2023-04-24T00:19:51;14.48;;;6.40;;
65162;SDS011;51751;55.714;37.436;2023-04-24T00:22:24;13.45;;;6.53;;
65162;SDS011;51751;55.714;37.436;2023-04-24T00:24:50;15.60;;;6.30;;
65162;SDS011;51751;55.714;37.436;2023-04-24T00:27:16;11.73;;;5.70;;
65162;SDS011;51751;55.714;37.436;2023-04-24T00:29:42;15.52;;;6.60;;
65162;SDS011;51751;55.714;37.436;2023-04-24T00:32:07;13.15;;;5.85;;
65162;SDS011;51751;55.714;37.436;2023-04-24T00:34:33;12.45;;;5.63;;
65162;SDS011;51751;55.714;37.436;2023-04-24T00:36:59;14.35;;;5.97;;
65162;SDS011;51751;55.714;37.436;2023-04-24T00:39:25;11.20;;;5.63;;
65162;SDS011;51751;55.714;37.436;2023-04-24T00:41:51;13.43;;;6.60;;
65162;SDS011;51751;55.714;37.436;2023-04-24T00:44:18;13.80;;;5.57;;
65162;SDS011;51751;55.714;37.436;2023-04-24T00:46:45;16.30;;;6.88;;
65162;SDS011;51751;55.714;37.436;2023-04-24T00:49:13;13.77;;;6.40;;
65162;SDS011;51751;55.714;37.436;2023-04-24T00:51:39;12.20;;;5.32;;
65162;SDS011;51751;55.714;37.436;2023-04-24T00:54:06;19.67;;;7.90;;
65162;SDS011;51751;55.714;37.436;2023-04-24T00:56:32;16.65;;;6.95;;
65162;SDS011;51751;55.714;37.436;2023-04-24T00:58:58;33.05;;;12.80;;
65162;SDS011;51751;55.714;37.436;2023-04-24T01:01:24;14.70;;;7.53;;
65162;SDS011;51751;55.714;37.436;2023-04-24T01:03:50;15.95;;;6.32;;
65162;SDS011;51751;55.714;37.436;2023-04-24T01:06:17;11.45;;;6.70;;
65162;SDS011;51751;55.714;37.436;2023-04-24T01:08:44;10.15;;;6.03;;
65162;SDS011;51751;55.714;37.436;2023-04-24T01:11:10;19.58;;;7.00;;
65162;SDS011;51751;55.714;37.436;2023-04-24T01:13:37;9.93;;;5.78;;
65162;SDS011;51751;55.714;37.436;2023-04-24T01:16:03;13.85;;;6.85;;
65162;SDS011;51751;55.714;37.436;2023-04-24T01:18:29;11.65;;;6.20;;
65162;SDS011;51751;55.714;37.436;2023-04-24T01:21:14;12.25;;;6.63;;
65162;SDS011;51751;55.714;37.436;2023-04-24T01:23:44;16.55;;;6.07;;
65162;SDS011;51751;55.714;37.436;2023-04-24T01:26:11;12.05;;;6.10;;
65162;SDS011;51751;55.714;37.436;2023-04-24T01:28:38;13.65;;;6.63;;
65162;SDS011;51751;55.714;37.436;2023-04-24T01:31:05;17.60;;;6.47;;
65162;SDS011;51751;55.714;37.436;2023-04-24T01:33:31;11.52;;;6.20;;
65162;SDS011;51751;55.714;37.436;2023-04-24T01:35:57;26.77;;;9.18;;
65162;SDS011;51751;55.714;37.436;2023-04-24T01:38:23;17.08;;;7.25;;
65162;SDS011;51751;55.714;37.436;2023-04-24T01:40:49;12.73;;;6.53;;
65162;SDS011;51751;55.714;37.436;2023-04-24T01:43:34;12.57;;;6.43;;
65162;SDS011;51751;55.714;37.436;2023-04-24T01:46:00;19.15;;;7.15;;
65162;SDS011;51751;55.714;37.436;2023-04-24T01:48:25;16.83;;;6.88;;
65162;SDS011;51751;55.714;37.436;2023-04-24T01:50:51;11.32;;;6.40;;
65162;SDS011;51751;55.714;37.436;2023-04-24T01:53:17;11.98;;;6.32;;
65162;SDS011;51751;55.714;37.436;2023-04-24T01:55:43;13.02;;;6.28;;
65162;SDS011;51751;55.714;37.436;2023-04-24T01:58:11;13.55;;;6.75;;
65162;SDS011;51751;55.714;37.436;2023-04-24T02:00:37;12.57;;;7.10;;
65162;SDS011;51751;55.714;37.436;2023-04-24T02:03:03;14.35;;;7.72;;
65162;SDS011;51751;55.714;37.436;2023-04-24T02:05:29;14.98;;;6.93;;
65162;SDS011;51751;55.714;37.436;2023-04-24T02:07:55;12.52;;;6.60;;
65162;SDS011;51751;55.714;37.436;2023-04-24T02:10:21;13.00;;;6.60;;
65162;SDS011;51751;55.714;37.436;2023-04-24T02:12:48;15.45;;;6.93;;
65162;SDS011;51751;55.714;37.436;2023-04-24T02:15:15;20.70;;;7.53;;
65162;SDS011;51751;55.714;37.436;2023-04-24T02:17:43;11.43;;;6.72;;
65162;SDS011;51751;55.714;37.436;2023-04-24T02:20:28;13.82;;;6.97;;
65162;SDS011;51751;55.714;37.436;2023-04-24T02:22:54;13.63;;;6.38;;
65162;SDS011;51751;55.714;37.436;2023-04-24T02:25:20;15.23;;;6.68;;
65162;SDS011;51751;55.714;37.436;2023-04-24T02:27:47;16.73;;;7.50;;
65162;SDS011;51751;55.714;37.436;2023-04-24T02:30:12;14.40;;;7.28;;
65162;SDS011;51751;55.714;37.436;2023-04-24T02:32:39;12.75;;;7.03;;
65162;SDS011;51751;55.714;37.436;2023-04-24T02:35:04;13.23;;;7.05;;
65162;SDS011;51751;55.714;37.436;2023-04-24T02:37:31;21.52;;;8.13;;
65162;SDS011;51751;55.714;37.436;2023-04-24T02:39:57;22.27;;;7.05;;
65162;SDS011;51751;55.714;37.436;2023-04-24T02:42:41;14.90;;;7.10;;
65162;SDS011;51751;55.714;37.436;2023-04-24T02:45:07;16.15;;;7.95;;
65162;SDS011;51751;55.714;37.436;2023-04-24T02:47:33;19.08;;;7.68;;
65162;SDS011;51751;55.714;37.436;2023-04-24T02:49:59;13.40;;;7.28;;
65162;SDS011;51751;55.714;37.436;2023-04-24T02:52:25;16.17;;;7.28;;
65162;SDS011;51751;55.714;37.436;2023-04-24T02:54:51;12.18;;;6.85;;
65162;SDS011;51751;55.714;37.436;2023-04-24T02:57:16;15.77;;;7.90;;
65162;SDS011;51751;55.714;37.436;2023-04-24T03:00:00;12.10;;;7.57;;
65162;SDS011;51751;55.714;37.436;2023-04-24T03:02:26;15.20;;;7.53;;
65162;SDS011;51751;55.714;37.436;2023-04-24T03:04:52;15.20;;;7.55;;
65162;SDS011;51751;55.714;37.436;2023-04-24T03:07:19;15.32;;;7.50;;
65162;SDS011;51751;55.714;37.436;2023-04-24T03:09:46;14.23;;;7.40;;
65162;SDS011;51751;55.714;37.436;2023-04-24T03:12:14;18.52;;;8.00;;
65162;SDS011;51751;55.714;37.436;2023-04-24T03:14:42;16.00;;;7.90;;
65162;SDS011;51751;55.714;37.436;2023-04-24T03:17:08;24.83;;;7.95;;
65162;SDS011;51751;55.714;37.436;2023-04-24T03:19:33;22.63;;;7.72;;
65162;SDS011;51751;55.714;37.436;2023-04-24T03:22:04;14.75;;;7.78;;
65162;SDS011;51751;55.714;37.436;2023-04-24T03:24:49;16.85;;;7.78;;
65162;SDS011;51751;55.714;37.436;2023-04-24T03:27:17;30.90;;;8.02;;
65162;SDS011;51751;55.714;37.436;2023-04-24T03:29:58;21.38;;;7.72;;
65162;SDS011;51751;55.714;37.436;2023-04-24T03:32:32;19.80;;;7.72;;
65162;SDS011;51751;55.714;37.436;2023-04-24T03:34:58;18.17;;;7.82;;
65162;SDS011;51751;55.714;37.436;2023-04-24T03:37:24;13.82;;;7.13;;
65162;SDS011;51751;55.714;37.436;2023-04-24T03:40:10;14.48;;;7.60;;
65162;SDS011;51751;55.714;37.436;2023-04-24T03:42:36;13.65;;;7.10;;
65162;SDS011;51751;55.714;37.436;2023-04-24T03:45:05;17.77;;;7.32;;
65162;SDS011;51751;55.714;37.436;2023-04-24T03:47:34;22.52;;;8.18;;
65162;SDS011;51751;55.714;37.436;2023-04-24T03:50:02;20.98;;;8.27;;
65162;SDS011;51751;55.714;37.436;2023-04-24T03:52:30;22.58;;;8.98;;
65162;SDS011;51751;55.714;37.436;2023-04-24T03:54:55;18.88;;;7.90;;
65162;SDS011;51751;55.714;37.436;2023-04-24T03:57:23;27.20;;;10.05;;
65162;SDS011;51751;55.714;37.436;2023-04-24T04:00:07;22.48;;;9.30;;
65162;SDS011;51751;55.714;37.436;2023-04-24T04:02:40;26.25;;;10.00;;
65162;SDS011;51751;55.714;37.436;2023-04-24T04:05:08;29.70;;;9.82;;
65162;SDS011;51751;55.714;37.436;2023-04-24T04:07:34;44.50;;;12.13;;
65162;SDS011;51751;55.714;37.436;2023-04-24T04:10:00;40.63;;;12.45;;
65162;SDS011;51751;55.714;37.436;2023-04-24T04:12:25;45.22;;;11.93;;
65162;SDS011;51751;55.714;37.436;2023-04-24T04:14:52;37.92;;;10.57;;
65162;SDS011;51751;55.714;37.436;2023-04-24T04:17:18;27.23;;;10.52;;
65162;SDS011;51751;55.714;37.436;2023-04-24T04:19:44;36.13;;;10.55;;
65162;SDS011;51751;55.714;37.436;2023-04-24T04:22:10;41.97;;;11.90;;
65162;SDS011;51751;55.714;37.436;2023-04-24T04:24:44;40.83;;;11.63;;
65162;SDS011;51751;55.714;37.436;2023-04-24T04:27:12;31.27;;;10.02;;
65162;SDS011;51751;55.714;37.436;2023-04-24T04:29:54;34.05;;;10.98;;
65162;SDS011;51751;55.714;37.436;2023-04-24T04:32:22;27.70;;;8.98;;
65162;SDS011;51751;55.714;37.436;2023-04-24T04:34:48;33.40;;;9.98;;
65162;SDS011;51751;55.714;37.436;2023-04-24T04:37:15;20.67;;;9.32;;
65162;SDS011;51751;55.714;37.436;2023-04-24T04:40:00;34.88;;;10.38;;
65162;SDS011;51751;55.714;37.436;2023-04-24T04:42:45;28.10;;;8.88;;
65162;SDS011;51751;55.714;37.436;2023-04-24T04:45:12;28.02;;;10.18;;
65162;SDS011;51751;55.714;37.436;2023-04-24T04:47:56;21.75;;;8.65;;
65162;SDS011;51751;55.714;37.436;2023-04-24T04:50:22;19.38;;;8.32;;
65162;SDS011;51751;55.714;37.436;2023-04-24T04:52:51;24.50;;;8.52;;
65162;SDS011;51751;55.714;37.436;2023-04-24T04:55:27;28.33;;;9.13;;
65162;SDS011;51751;55.714;37.436;2023-04-24T04:58:04;34.05;;;9.05;;
65162;SDS011;51751;55.714;37.436;2023-04-24T05:00:31;21.20;;;7.95;;
65162;SDS011;51751;55.714;37.436;2023-04-24T05:03:19;16.33;;;7.20;;
65162;SDS011;51751;55.714;37.436;2023-04-24T05:05:46;23.52;;;7.85;;
65162;SDS011;51751;55.714;37.436;2023-04-24T05:08:14;24.00;;;8.02;;
65162;SDS011;51751;55.714;37.436;2023-04-24T05:10:41;20.75;;;6.70;;
65162;SDS011;51751;55.714;37.436;2023-04-24T05:13:07;17.58;;;6.78;;
65162;SDS011;51751;55.714;37.436;2023-04-24T05:15:51;16.58;;;6.47;;
65162;SDS011;51751;55.714;37.436;2023-04-24T05:18:36;27.17;;;7.20;;
65162;SDS011;51751;55.714;37.436;2023-04-24T05:21:03;20.63;;;6.70;;
65162;SDS011;51751;55.714;37.436;2023-04-24T05:23:29;23.98;;;6.97;;
65162;SDS011;51751;55.714;37.436;2023-04-24T05:25:56;14.60;;;6.30;;
65162;SDS011;51751;55.714;37.436;2023-04-24T05:28:21;22.02;;;6.60;;
65162;SDS011;51751;55.714;37.436;2023-04-24T05:31:00;25.33;;;8.32;;
65162;SDS011;51751;55.714;37.436;2023-04-24T05:33:26;25.92;;;6.95;;
65162;SDS011;51751;55.714;37.436;2023-04-24T05:35:52;22.58;;;7.30;;
65162;SDS011;51751;55.714;37.436;2023-04-24T05:38:20;25.90;;;6.97;;
65162;SDS011;51751;55.714;37.436;2023-04-24T05:40:46;13.77;;;5.80;;
65162;SDS011;51751;55.714;37.436;2023-04-24T05:43:12;18.13;;;7.28;;
65162;SDS011;51751;55.714;37.436;2023-04-24T05:45:39;18.02;;;6.50;;
65162;SDS011;51751;55.714;37.436;2023-04-24T05:48:05;10.27;;;5.00;;
65162;SDS011;51751;55.714;37.436;2023-04-24T05:50:31;19.75;;;5.78;;
65162;SDS011;51751;55.714;37.436;2023-04-24T05:52:57;10.85;;;5.65;;
65162;SDS011;51751;55.714;37.436;2023-04-24T05:55:28;14.20;;;5.40;;
65162;SDS011;51751;55.714;37.436;2023-04-24T05:57:54;13.10;;;5.78;;
65162;SDS011;51751;55.714;37.436;2023-04-24T06:00:20;13.40;;;5.35;;
65162;SDS011;51751;55.714;37.436;2023-04-24T06:03:04;24.00;;;7.03;;
65162;SDS011;51751;55.714;37.436;2023-04-24T06:05:30;21.05;;;6.43;;
65162;SDS011;51751;55.714;37.436;2023-04-24T06:07:56;14.32;;;5.50;;
65162;SDS011;51751;55.714;37.436;2023-04-24T06:10:25;14.52;;;5.68;;
65162;SDS011;51751;55.714;37.436;2023-04-24T06:12:51;18.55;;;5.05;;
65162;SDS011;51751;55.714;37.436;2023-04-24T06:15:17;15.93;;;5.82;;
65162;SDS011;51751;55.714;37.436;2023-04-24T06:18:06;16.30;;;5.50;;
65162;SDS011;51751;55.714;37.436;2023-04-24T06:20:32;16.60;;;5.65;;
65162;SDS011;51751;55.714;37.436;2023-04-24T06:22:58;22.13;;;6.03;;
65162;SDS011;51751;55.714;37.436;2023-04-24T06:25:25;14.75;;;4.78;;
65162;SDS011;51751;55.714;37.436;2023-04-24T06:27:52;12.07;;;5.20;;
65162;SDS011;51751;55.714;37.436;2023-04-24T06:30:18;11.65;;;5.05;;
65162;SDS011;51751;55.714;37.436;2023-04-24T06:32:43;14.10;;;5.60;;
65162;SDS011;51751;55.714;37.436;2023-04-24T06:35:09;12.93;;;4.88;;
65162;SDS011;51751;55.714;37.436;2023-04-24T06:37:41;13.20;;;4.90;;
65162;SDS011;51751;55.714;37.436;2023-04-24T06:40:07;10.48;;;5.00;;
65162;SDS011;51751;55.714;37.436;2023-04-24T06:42:34;12.80;;;5.13;;
65162;SDS011;51751;55.714;37.436;2023-04-24T06:45:02;16.70;;;5.50;;
65162;SDS011;51751;55.714;37.436;2023-04-24T06:47:32;12.50;;;5.32;;
65162;SDS011;51751;55.714;37.436;2023-04-24T06:49:58;11.35;;;4.70;;
65162;SDS011;51751;55.714;37.436;2023-04-24T06:52:24;21.48;;;5.72;;
65162;SDS011;51751;55.714;37.436;2023-04-24T06:54:50;15.57;;;4.63;;
65162;SDS011;51751;55.714;37.436;2023-04-24T06:57:15;13.35;;;4.57;;
65162;SDS011;51751;55.714;37.436;2023-04-24T06:59:43;11.73;;;4.65;;
65162;SDS011;51751;55.714;37.436;2023-04-24T07:02:09;7.60;;;4.13;;
65162;SDS011;51751;55.714;37.436;2023-04-24T07:04:34;11.75;;;4.75;;
65162;SDS011;51751;55.714;37.436;2023-04-24T07:07:00;12.35;;;4.85;;
65162;SDS011;51751;55.714;37.436;2023-04-24T07:09:26;8.43;;;4.60;;
65162;SDS011;51751;55.714;37.436;2023-04-24T07:11:52;15.00;;;5.82;;
65162;SDS011;51751;55.714;37.436;2023-04-24T07:14:19;20.30;;;4.95;;
65162;SDS011;51751;55.714;37.436;2023-04-24T07:16:46;16.13;;;4.82;;
65162;SDS011;51751;55.714;37.436;2023-04-24T07:19:12;12.07;;;4.95;;
65162;SDS011;51751;55.714;37.436;2023-04-24T07:21:38;15.50;;;5.55;;
65162;SDS011;51751;55.714;37.436;2023-04-24T07:24:04;11.95;;;4.57;;
65162;SDS011;51751;55.714;37.436;2023-04-24T07:26:30;17.02;;;5.28;;
65162;SDS011;51751;55.714;37.436;2023-04-24T07:28:56;9.63;;;4.57;;
65162;SDS011;51751;55.714;37.436;2023-04-24T07:31:22;11.20;;;4.35;;
65162;SDS011;51751;55.714;37.436;2023-04-24T07:33:48;23.05;;;5.20;;
65162;SDS011;51751;55.714;37.436;2023-04-24T07:36:14;14.43;;;5.20;;
65162;SDS011;51751;55.714;37.436;2023-04-24T07:38:47;9.57;;;4.78;;
65162;SDS011;51751;55.714;37.436;2023-04-24T07:41:13;10.75;;;4.40;;
65162;SDS011;51751;55.714;37.436;2023-04-24T07:43:40;8.27;;;3.60;;
65162;SDS011;51751;55.714;37.436;2023-04-24T07:46:07;9.00;;;3.65;;
65162;SDS011;51751;55.714;37.436;2023-04-24T07:48:33;14.30;;;4.15;;
65162;SDS011;51751;55.714;37.436;2023-04-24T07:50:59;11.15;;;4.32;;
65162;SDS011;51751;55.714;37.436;2023-04-24T07:53:25;7.80;;;4.00;;
65162;SDS011;51751;55.714;37.436;2023-04-24T07:55:51;7.90;;;4.20;;
65162;SDS011;51751;55.714;37.436;2023-04-24T07:58:17;10.75;;;4.03;;
65162;SDS011;51751;55.714;37.436;2023-04-24T08:00:42;7.25;;;3.92;;
65162;SDS011;51751;55.714;37.436;2023-04-24T08:03:08;12.50;;;3.88;;
65162;SDS011;51751;55.714;37.436;2023-04-24T08:05:37;7.70;;;3.83;;
65162;SDS011;51751;55.714;37.436;2023-04-24T08:08:03;9.40;;;5.07;;
65162;SDS011;51751;55.714;37.436;2023-04-24T08:10:28;6.88;;;4.00;;
65162;SDS011;51751;55.714;37.436;2023-04-24T08:12:54;8.48;;;3.80;;
65162;SDS011;51751;55.714;37.436;2023-04-24T08:15:20;7.53;;;3.95;;
65162;SDS011;51751;55.714;37.436;2023-04-24T08:21:15;9.35;;;3.85;;
65162;SDS011;51751;55.714;37.436;2023-04-24T08:23:44;9.40;;;3.65;;
65162;SDS011;51751;55.714;37.436;2023-04-24T08:26:11;12.93;;;4.30;;
65162;SDS011;51751;55.714;37.436;2023-04-24T08:28:56;6.30;;;3.87;;
65162;SDS011;51751;55.714;37.436;2023-04-24T08:31:21;7.45;;;3.70;;
65162;SDS011;51751;55.714;37.436;2023-04-24T08:33:48;7.38;;;4.10;;
65162;SDS011;51751;55.714;37.436;2023-04-24T08:36:14;9.27;;;3.80;;
65162;SDS011;51751;55.714;37.436;2023-04-24T08:38:39;9.93;;;3.92;;
65162;SDS011;51751;55.714;37.436;2023-04-24T08:41:06;11.05;;;4.00;;
65162;SDS011;51751;55.714;37.436;2023-04-24T08:43:32;9.60;;;4.05;;
65162;SDS011;51751;55.714;37.436;2023-04-24T08:45:59;7.80;;;4.18;;
65162;SDS011;51751;55.714;37.436;2023-04-24T08:48:25;11.85;;;5.22;;
65162;SDS011;51751;55.714;37.436;2023-04-24T08:50:52;8.32;;;3.90;;
65162;SDS011;51751;55.714;37.436;2023-04-24T08:53:18;9.25;;;3.85;;
65162;SDS011;51751;55.714;37.436;2023-04-24T08:55:46;9.25;;;4.75;;
65162;SDS011;51751;55.714;37.436;2023-04-24T08:58:14;7.47;;;3.78;;
65162;SDS011;51751;55.714;37.436;2023-04-24T09:00:42;9.15;;;3.88;;
65162;SDS011;51751;55.714;37.436;2023-04-24T09:03:13;7.90;;;3.60;;
65162;SDS011;51751;55.714;37.436;2023-04-24T09:05:44;16.02;;;3.80;;
65162;SDS011;51751;55.714;37.436;2023-04-24T09:08:12;9.32;;;4.13;;
65162;SDS011;51751;55.714;37.436;2023-04-24T09:10:40;7.28;;;3.97;;
65162;SDS011;51751;55.714;37.436;2023-04-24T09:13:06;5.63;;;4.07;;
65162;SDS011;51751;55.714;37.436;2023-04-24T09:15:34;12.02;;;4.18;;
65162;SDS011;51751;55.714;37.436;2023-04-24T09:18:04;17.52;;;4.95;;
65162;SDS011;51751;55.714;37.436;2023-04-24T09:20:30;9.90;;;3.83;;
65162;SDS011;51751;55.714;37.436;2023-04-24T09:22:57;8.30;;;4.18;;
65162;SDS011;51751;55.714;37.436;2023-04-24T09:25:32;11.52;;;4.40;;
65162;SDS011;51751;55.714;37.436;2023-04-24T09:28:02;12.85;;;4.43;;
65162;SDS011;51751;55.714;37.436;2023-04-24T09:30:29;8.85;;;3.85;;
65162;SDS011;51751;55.714;37.436;2023-04-24T09:33:12;14.93;;;5.22;;
65162;SDS011;51751;55.714;37.436;2023-04-24T09:35:57;6.93;;;3.85;;
65162;SDS011;51751;55.714;37.436;2023-04-24T09:38:30;32.97;;;4.70;;
65162;SDS011;51751;55.714;37.436;2023-04-24T09:41:19;6.15;;;3.50;;
65162;SDS011;51751;55.714;37.436;2023-04-24T09:43:45;8.73;;;4.00;;
65162;SDS011;51751;55.714;37.436;2023-04-24T09:46:11;7.80;;;4.03;;
65162;SDS011;51751;55.714;37.436;2023-04-24T09:48:38;5.60;;;3.33;;
65162;SDS011;51751;55.714;37.436;2023-04-24T09:51:06;6.50;;;3.40;;
65162;SDS011;51751;55.714;37.436;2023-04-24T09:53:36;4.75;;;3.38;;
65162;SDS011;51751;55.714;37.436;2023-04-24T09:56:07;4.38;;;3.15;;
65162;SDS011;51751;55.714;37.436;2023-04-24T09:58:35;17.85;;;3.75;;
65162;SDS011;51751;55.714;37.436;2023-04-24T10:01:01;6.07;;;3.40;;
65162;SDS011;51751;55.714;37.436;2023-04-24T10:03:31;7.20;;;3.35;;
65162;SDS011;51751;55.714;37.436;2023-04-24T10:05:58;9.75;;;3.38;;
65162;SDS011;51751;55.714;37.436;2023-04-24T10:08:25;7.28;;;3.42;;
65162;SDS011;51751;55.714;37.436;2023-04-24T10:10:52;7.95;;;3.42;;
65162;SDS011;51751;55.714;37.436;2023-04-24T10:13:18;4.20;;;3.03;;
65162;SDS011;51751;55.714;37.436;2023-04-24T10:16:03;6.25;;;3.42;;
65162;SDS011;51751;55.714;37.436;2023-04-24T10:18:29;5.45;;;3.30;;
65162;SDS011;51751;55.714;37.436;2023-04-24T10:20:56;6.95;;;3.65;;
65162;SDS011;51751;55.714;37.436;2023-04-24T10:23:22;10.13;;;3.40;;
65162;SDS011;51751;55.714;37.436;2023-04-24T10:25:49;3.72;;;3.13;;
65162;SDS011;51751;55.714;37.436;2023-04-24T10:28:36;5.85;;;3.58;;
65162;SDS011;51751;55.714;37.436;2023-04-24T10:31:02;10.82;;;3.33;;
65162;SDS011;51751;55.714;37.436;2023-04-24T10:33:29;5.20;;;3.30;;
65162;SDS011;51751;55.714;37.436;2023-04-24T10:35:56;6.90;;;3.50;;
65162;SDS011;51751;55.714;37.436;2023-04-24T10:38:27;9.30;;;3.47;;
65162;SDS011;51751;55.714;37.436;2023-04-24T10:41:07;9.80;;;3.55;;
65162;SDS011;51751;55.714;37.436;2023-04-24T10:43:35;9.85;;;3.38;;
65162;SDS011;51751;55.714;37.436;2023-04-24T10:46:01;10.10;;;3.88;;
65162;SDS011;51751;55.714;37.436;2023-04-24T10:51:17;7.43;;;3.30;;
65162;SDS011;51751;55.714;37.436;2023-04-24T10:53:43;5.10;;;3.30;;
65162;SDS011;51751;55.714;37.436;2023-04-24T10:56:09;7.00;;;3.55;;
65162;SDS011;51751;55.714;37.436;2023-04-24T10:58:45;8.65;;;3.50;;
65162;SDS011;51751;55.714;37.436;2023-04-24T11:01:37;5.95;;;3.05;;
65162;SDS011;51751;55.714;37.436;2023-04-24T11:09:07;5.65;;;3.45;;
65162;SDS011;51751;55.714;37.436;2023-04-24T11:11:36;14.38;;;3.83;;
65162;SDS011;51751;55.714;37.436;2023-04-24T11:14:03;7.13;;;3.20;;
65162;SDS011;51751;55.714;37.436;2023-04-24T11:16:53;7.93;;;3.45;;
65162;SDS011;51751;55.714;37.436;2023-04-24T11:19:23;7.43;;;3.53;;
65162;SDS011;51751;55.714;37.436;2023-04-24T11:21:58;8.35;;;3.90;;
65162;SDS011;51751;55.714;37.436;2023-04-24T11:27:19;5.40;;;3.40;;
65162;SDS011;51751;55.714;37.436;2023-04-24T11:32:28;3.88;;;3.30;;
65162;SDS011;51751;55.714;37.436;2023-04-24T11:35:05;4.82;;;3.20;;
65162;SDS011;51751;55.714;37.436;2023-04-24T11:37:43;5.32;;;3.70;;
65162;SDS011;51751;55.714;37.436;2023-04-24T11:40:12;4.13;;;3.20;;
65162;SDS011;51751;55.714;37.436;2023-04-24T11:42:39;10.65;;;3.40;;
65162;SDS011;51751;55.714;37.436;2023-04-24T11:45:08;5.20;;;3.30;;
65162;SDS011;51751;55.714;37.436;2023-04-24T11:47:36;12.48;;;3.75;;
65162;SDS011;51751;55.714;37.436;2023-04-24T11:50:02;8.05;;;3.38;;
65162;SDS011;51751;55.714;37.436;2023-04-24T11:52:30;7.13;;;3.80;;
65162;SDS011;51751;55.714;37.436;2023-04-24T11:54:56;9.25;;;3.20;;
65162;SDS011;51751;55.714;37.436;2023-04-24T11:57:23;8.75;;;3.53;;
65162;SDS011;51751;55.714;37.436;2023-04-24T11:59:53;8.07;;;3.60;;
65162;SDS011;51751;55.714;37.436;2023-04-24T12:02:22;10.68;;;3.72;;
65162;SDS011;51751;55.714;37.436;2023-04-24T12:04:49;9.27;;;3.25;;
65162;SDS011;51751;55.714;37.436;2023-04-24T12:07:15;8.10;;;3.30;;
65162;SDS011;51751;55.714;37.436;2023-04-24T12:09:45;3.67;;;3.13;;
65162;SDS011;51751;55.714;37.436;2023-04-24T12:12:19;5.47;;;3.05;;
65162;SDS011;51751;55.714;37.436;2023-04-24T12:14:49;11.00;;;3.63;;
65162;SDS011;51751;55.714;37.436;2023-04-24T12:17:17;9.45;;;3.78;;
65162;SDS011;51751;55.714;37.436;2023-04-24T12:19:50;6.47;;;3.20;;
65162;SDS011;51751;55.714;37.436;2023-04-24T12:22:16;7.07;;;3.88;;
65162;SDS011;51751;55.714;37.436;2023-04-24T12:25:01;7.00;;;3.45;;
65162;SDS011;51751;55.714;37.436;2023-04-24T12:27:31;10.38;;;3.78;;
65162;SDS011;51751;55.714;37.436;2023-04-24T12:29:58;4.85;;;3.20;;
65162;SDS011;51751;55.714;37.436;2023-04-24T12:32:44;17.73;;;4.15;;
65162;SDS011;51751;55.714;37.436;2023-04-24T12:35:12;4.45;;;3.13;;
65162;SDS011;51751;55.714;37.436;2023-04-24T12:37:38;5.70;;;3.30;;
65162;SDS011;51751;55.714;37.436;2023-04-24T12:40:24;8.00;;;3.42;;
65162;SDS011;51751;55.714;37.436;2023-04-24T12:42:51;10.15;;;3.20;;
65162;SDS011;51751;55.714;37.436;2023-04-24T12:45:17;4.55;;;3.13;;
65162;SDS011;51751;55.714;37.436;2023-04-24T12:47:45;6.10;;;3.22;;
65162;SDS011;51751;55.714;37.436;2023-04-24T12:50:12;5.15;;;3.20;;
65162;SDS011;51751;55.714;37.436;2023-04-24T12:52:39;7.47;;;3.28;;
65162;SDS011;51751;55.714;37.436;2023-04-24T12:55:05;7.30;;;3.40;;
65162;SDS011;51751;55.714;37.436;2023-04-24T12:57:34;6.32;;;3.22;;
65162;SDS011;51751;55.714;37.436;2023-04-24T13:00:00;9.20;;;3.10;;
65162;SDS011;51751;55.714;37.436;2023-04-24T13:02:33;9.70;;;3.00;;
65162;SDS011;51751;55.714;37.436;2023-04-24T13:05:00;13.93;;;3.28;;
65162;SDS011;51751;55.714;37.436;2023-04-24T13:07:32;7.60;;;3.42;;
65162;SDS011;51751;55.714;37.436;2023-04-24T13:09:58;12.13;;;3.67;;
65162;SDS011;51751;55.714;37.436;2023-04-24T13:12:25;9.07;;;3.05;;
65162;SDS011;51751;55.714;37.436;2023-04-24T13:14:52;8.27;;;3.20;;
65162;SDS011;51751;55.714;37.436;2023-04-24T13:17:19;5.00;;;3.08;;
65162;SDS011;51751;55.714;37.436;2023-04-24T13:19:45;9.95;;;3.10;;
65162;SDS011;51751;55.714;37.436;2023-04-24T13:22:12;7.18;;;3.10;;
65162;SDS011;51751;55.714;37.436;2023-04-24T13:24:38;9.10;;;3.15;;
65162;SDS011;51751;55.714;37.436;2023-04-24T13:27:08;9.10;;;3.20;;
65162;SDS011;51751;55.714;37.436;2023-04-24T13:29:35;4.15;;;2.75;;
65162;SDS011;51751;55.714;37.436;2023-04-24T13:32:01;7.43;;;3.00;;
65162;SDS011;51751;55.714;37.436;2023-04-24T13:34:27;6.78;;;3.10;;
65162;SDS011;51751;55.714;37.436;2023-04-24T13:36:54;20.27;;;3.25;;
65162;SDS011;51751;55.714;37.436;2023-04-24T13:39:22;13.82;;;3.55;;
65162;SDS011;51751;55.714;37.436;2023-04-24T13:41:49;7.03;;;3.17;;
65162;SDS011;51751;55.714;37.436;2023-04-24T13:44:16;9.65;;;3.58;;
65162;SDS011;51751;55.714;37.436;2023-04-24T13:46:43;5.70;;;3.20;;
65162;SDS011;51751;55.714;37.436;2023-04-24T13:49:11;6.28;;;3.15;;
65162;SDS011;51751;55.714;37.436;2023-04-24T13:51:38;5.97;;;3.60;;
65162;SDS011;51751;55.714;37.436;2023-04-24T13:54:05;6.78;;;3.03;;
65162;SDS011;51751;55.714;37.436;2023-04-24T13:56:32;15.77;;;3.50;;
65162;SDS011;51751;55.714;37.436;2023-04-24T13:58:57;12.73;;;3.67;;
65162;SDS011;51751;55.714;37.436;2023-04-24T14:01:23;7.57;;;3.10;;
65162;SDS011;51751;55.714;37.436;2023-04-24T14:03:51;6.57;;;3.45;;
65162;SDS011;51751;55.714;37.436;2023-04-24T14:06:17;7.15;;;3.20;;
65162;SDS011;51751;55.714;37.436;2023-04-24T14:09:02;10.70;;;3.33;;
65162;SDS011;51751;55.714;37.436;2023-04-24T14:11:28;6.80;;;3.35;;
65162;SDS011;51751;55.714;37.436;2023-04-24T14:13:54;8.75;;;3.65;;
65162;SDS011;51751;55.714;37.436;2023-04-24T14:16:22;17.25;;;3.95;;
65162;SDS011;51751;55.714;37.436;2023-04-24T14:18:48;6.82;;;3.63;;
65162;SDS011;51751;55.714;37.436;2023-04-24T14:21:14;6.35;;;3.00;;
65162;SDS011;51751;55.714;37.436;2023-04-24T14:23:39;4.93;;;2.90;;
65162;SDS011;51751;55.714;37.436;2023-04-24T14:26:05;17.45;;;3.47;;
65162;SDS011;51751;55.714;37.436;2023-04-24T14:28:32;12.77;;;3.30;;
65162;SDS011;51751;55.714;37.436;2023-04-24T14:30:58;9.48;;;3.15;;
65162;SDS011;51751;55.714;37.436;2023-04-24T14:33:23;14.55;;;3.65;;
65162;SDS011;51751;55.714;37.436;2023-04-24T14:35:50;8.50;;;3.30;;
65162;SDS011;51751;55.714;37.436;2023-04-24T14:38:15;9.50;;;3.42;;
65162;SDS011;51751;55.714;37.436;2023-04-24T14:40:41;11.38;;;3.33;;
65162;SDS011;51751;55.714;37.436;2023-04-24T14:43:07;10.45;;;3.35;;
65162;SDS011;51751;55.714;37.436;2023-04-24T14:45:33;12.93;;;3.90;;
65162;SDS011;51751;55.714;37.436;2023-04-24T14:47:59;10.88;;;3.67;;
65162;SDS011;51751;55.714;37.436;2023-04-24T14:50:25;26.67;;;3.97;;